sensor_id;sensor_type;location;lat;lon;timestamp;P1;durP1;ratioP1;P2;durP2;ratioP2
40837;SDS011;29632;49.168;9.848;2022-09-03T00:05:23;0.90;;;0.63;;
40837;SDS011;29632;49.168;9.848;2022-09-03T00:16:47;2.73;;;0.80;;
40837;SDS011;29632;49.168;9.848;2022-09-03T00:19:26;2.00;;;0.70;;
40837;SDS011;29632;49.168;9.848;2022-09-03T00:21:58;3.33;;;1.00;;
40837;SDS011;29632;49.168;9.848;2022-09-03T00:24:34;2.07;;;1.03;;
40837;SDS011;29632;49.168;9.848;2022-09-03T00:27:05;1.87;;;0.93;;
40837;SDS011;29632;49.168;9.848;2022-09-03T00:29:43;1.73;;;1.03;;
40837;SDS011;29632;49.168;9.848;2022-09-03T00:32:17;1.20;;;1.00;;
40837;SDS011;29632;49.168;9.848;2022-09-03T00:34:51;1.73;;;1.07;;
40837;SDS011;29632;49.168;9.848;2022-09-03T00:37:24;3.90;;;1.30;;
40837;SDS011;29632;49.168;9.848;2022-09-03T00:39:53;1.40;;;0.80;;
40837;SDS011;29632;49.168;9.848;2022-09-03T00:42:23;3.20;;;0.93;;
40837;SDS011;29632;49.168;9.848;2022-09-03T00:45:15;1.80;;;1.00;;
40837;SDS011;29632;49.168;9.848;2022-09-03T00:51:06;1.93;;;0.80;;
40837;SDS011;29632;49.168;9.848;2022-09-03T00:53:43;2.30;;;1.10;;
40837;SDS011;29632;49.168;9.848;2022-09-03T01:02:06;2.83;;;1.53;;
40837;SDS011;29632;49.168;9.848;2022-09-03T01:04:47;1.03;;;0.90;;
40837;SDS011;29632;49.168;9.848;2022-09-03T01:10:51;1.90;;;1.00;;
40837;SDS011;29632;49.168;9.848;2022-09-03T01:13:35;1.30;;;0.90;;
40837;SDS011;29632;49.168;9.848;2022-09-03T01:16:53;1.17;;;0.80;;
40837;SDS011;29632;49.168;9.848;2022-09-03T01:19:47;2.22;;;0.80;;
40837;SDS011;29632;49.168;9.848;2022-09-03T01:28:35;1.17;;;0.87;;
40837;SDS011;29632;49.168;9.848;2022-09-03T01:34:31;1.77;;;1.10;;
40837;SDS011;29632;49.168;9.848;2022-09-03T01:37:26;0.73;;;0.73;;
40837;SDS011;29632;49.168;9.848;2022-09-03T01:46:12;1.50;;;0.77;;
40837;SDS011;29632;49.168;9.848;2022-09-03T01:51:30;1.63;;;0.80;;
40837;SDS011;29632;49.168;9.848;2022-09-03T02:00:13;3.40;;;1.60;;
40837;SDS011;29632;49.168;9.848;2022-09-03T02:02:44;5.03;;;0.97;;
40837;SDS011;29632;49.168;9.848;2022-09-03T02:05:17;1.33;;;0.77;;
40837;SDS011;29632;49.168;9.848;2022-09-03T02:07:53;3.00;;;1.17;;
40837;SDS011;29632;49.168;9.848;2022-09-03T02:10:32;2.00;;;1.10;;
40837;SDS011;29632;49.168;9.848;2022-09-03T02:15:52;3.00;;;1.10;;
40837;SDS011;29632;49.168;9.848;2022-09-03T02:18:27;0.80;;;0.70;;
40837;SDS011;29632;49.168;9.848;2022-09-03T02:21:00;1.30;;;0.90;;
40837;SDS011;29632;49.168;9.848;2022-09-03T02:23:25;3.57;;;1.27;;
40837;SDS011;29632;49.168;9.848;2022-09-03T02:25:56;2.83;;;1.33;;
40837;SDS011;29632;49.168;9.848;2022-09-03T02:28:25;2.20;;;0.97;;
40837;SDS011;29632;49.168;9.848;2022-09-03T02:30:53;1.90;;;1.40;;
40837;SDS011;29632;49.168;9.848;2022-09-03T02:33:19;5.50;;;1.43;;
40837;SDS011;29632;49.168;9.848;2022-09-03T02:35:45;2.93;;;1.00;;
40837;SDS011;29632;49.168;9.848;2022-09-03T02:38:29;1.53;;;0.80;;
40837;SDS011;29632;49.168;9.848;2022-09-03T02:40:55;1.67;;;0.93;;
40837;SDS011;29632;49.168;9.848;2022-09-03T02:46:17;3.53;;;1.27;;
40837;SDS011;29632;49.168;9.848;2022-09-03T02:48:52;2.43;;;1.03;;
40837;SDS011;29632;49.168;9.848;2022-09-03T02:51:18;4.10;;;1.00;;
40837;SDS011;29632;49.168;9.848;2022-09-03T02:53:44;1.37;;;1.20;;
40837;SDS011;29632;49.168;9.848;2022-09-03T02:56:10;2.37;;;1.10;;
40837;SDS011;29632;49.168;9.848;2022-09-03T02:58:36;1.97;;;1.00;;
40837;SDS011;29632;49.168;9.848;2022-09-03T03:01:02;1.50;;;1.00;;
40837;SDS011;29632;49.168;9.848;2022-09-03T03:03:29;2.23;;;1.03;;
40837;SDS011;29632;49.168;9.848;2022-09-03T03:05:55;1.80;;;1.20;;
40837;SDS011;29632;49.168;9.848;2022-09-03T03:08:25;1.60;;;1.10;;
40837;SDS011;29632;49.168;9.848;2022-09-03T03:10:53;1.33;;;0.83;;
40837;SDS011;29632;49.168;9.848;2022-09-03T03:13:24;1.87;;;0.83;;
40837;SDS011;29632;49.168;9.848;2022-09-03T03:15:54;1.27;;;0.93;;
40837;SDS011;29632;49.168;9.848;2022-09-03T03:18:25;1.50;;;1.00;;
40837;SDS011;29632;49.168;9.848;2022-09-03T03:20:52;3.37;;;1.10;;
40837;SDS011;29632;49.168;9.848;2022-09-03T03:23:18;1.97;;;1.30;;
40837;SDS011;29632;49.168;9.848;2022-09-03T03:25:45;1.60;;;1.17;;
40837;SDS011;29632;49.168;9.848;2022-09-03T03:28:11;1.87;;;1.00;;
40837;SDS011;29632;49.168;9.848;2022-09-03T03:30:38;2.20;;;0.83;;
40837;SDS011;29632;49.168;9.848;2022-09-03T03:33:04;2.00;;;1.10;;
40837;SDS011;29632;49.168;9.848;2022-09-03T03:35:31;1.03;;;0.90;;
40837;SDS011;29632;49.168;9.848;2022-09-03T03:37:57;1.70;;;0.90;;
40837;SDS011;29632;49.168;9.848;2022-09-03T03:40:24;2.00;;;1.03;;
40837;SDS011;29632;49.168;9.848;2022-09-03T03:42:50;2.07;;;1.03;;
40837;SDS011;29632;49.168;9.848;2022-09-03T03:45:17;1.77;;;1.00;;
40837;SDS011;29632;49.168;9.848;2022-09-03T03:47:43;2.60;;;1.10;;
40837;SDS011;29632;49.168;9.848;2022-09-03T03:50:09;3.27;;;0.90;;
40837;SDS011;29632;49.168;9.848;2022-09-03T03:52:35;2.20;;;1.07;;
40837;SDS011;29632;49.168;9.848;2022-09-03T03:55:00;1.33;;;1.20;;
40837;SDS011;29632;49.168;9.848;2022-09-03T03:57:28;3.80;;;1.10;;
40837;SDS011;29632;49.168;9.848;2022-09-03T03:59:55;1.23;;;0.90;;
40837;SDS011;29632;49.168;9.848;2022-09-03T04:02:21;1.93;;;1.03;;
40837;SDS011;29632;49.168;9.848;2022-09-03T04:04:47;1.63;;;1.17;;
40837;SDS011;29632;49.168;9.848;2022-09-03T04:07:13;1.53;;;1.07;;
40837;SDS011;29632;49.168;9.848;2022-09-03T04:09:38;1.80;;;1.10;;
40837;SDS011;29632;49.168;9.848;2022-09-03T04:12:04;1.93;;;1.00;;
40837;SDS011;29632;49.168;9.848;2022-09-03T04:14:32;4.10;;;1.43;;
40837;SDS011;29632;49.168;9.848;2022-09-03T04:16:59;1.87;;;1.10;;
40837;SDS011;29632;49.168;9.848;2022-09-03T04:19:26;2.07;;;1.20;;
40837;SDS011;29632;49.168;9.848;2022-09-03T04:21:54;2.00;;;1.30;;
40837;SDS011;29632;49.168;9.848;2022-09-03T04:24:20;2.27;;;1.13;;
40837;SDS011;29632;49.168;9.848;2022-09-03T04:26:46;1.97;;;1.50;;
40837;SDS011;29632;49.168;9.848;2022-09-03T04:29:14;3.53;;;1.30;;
40837;SDS011;29632;49.168;9.848;2022-09-03T04:31:40;1.50;;;1.23;;
40837;SDS011;29632;49.168;9.848;2022-09-03T04:34:29;1.60;;;1.00;;
40837;SDS011;29632;49.168;9.848;2022-09-03T04:36:54;3.27;;;1.30;;
40837;SDS011;29632;49.168;9.848;2022-09-03T04:39:22;1.57;;;1.10;;
40837;SDS011;29632;49.168;9.848;2022-09-03T04:41:48;2.00;;;1.10;;
40837;SDS011;29632;49.168;9.848;2022-09-03T04:44:13;2.53;;;1.00;;
40837;SDS011;29632;49.168;9.848;2022-09-03T04:46:40;1.67;;;1.00;;
40837;SDS011;29632;49.168;9.848;2022-09-03T04:49:06;2.87;;;1.30;;
40837;SDS011;29632;49.168;9.848;2022-09-03T04:51:33;2.57;;;1.30;;
40837;SDS011;29632;49.168;9.848;2022-09-03T04:54:01;2.73;;;1.30;;
40837;SDS011;29632;49.168;9.848;2022-09-03T04:56:28;2.27;;;1.23;;
40837;SDS011;29632;49.168;9.848;2022-09-03T04:58:59;2.40;;;1.30;;
40837;SDS011;29632;49.168;9.848;2022-09-03T05:01:34;1.60;;;1.20;;
40837;SDS011;29632;49.168;9.848;2022-09-03T05:04:02;1.83;;;1.00;;
40837;SDS011;29632;49.168;9.848;2022-09-03T05:06:29;2.67;;;1.10;;
40837;SDS011;29632;49.168;9.848;2022-09-03T05:08:56;1.70;;;1.40;;
40837;SDS011;29632;49.168;9.848;2022-09-03T05:11:23;1.53;;;0.90;;
40837;SDS011;29632;49.168;9.848;2022-09-03T05:13:51;2.33;;;1.07;;
40837;SDS011;29632;49.168;9.848;2022-09-03T05:16:19;1.33;;;1.07;;
40837;SDS011;29632;49.168;9.848;2022-09-03T05:18:47;1.37;;;1.10;;
40837;SDS011;29632;49.168;9.848;2022-09-03T05:21:17;2.35;;;1.35;;
40837;SDS011;29632;49.168;9.848;2022-09-03T05:23:44;1.80;;;1.17;;
40837;SDS011;29632;49.168;9.848;2022-09-03T05:26:13;1.93;;;1.23;;
40837;SDS011;29632;49.168;9.848;2022-09-03T05:28:45;1.87;;;0.97;;
40837;SDS011;29632;49.168;9.848;2022-09-03T05:31:12;2.03;;;1.13;;
40837;SDS011;29632;49.168;9.848;2022-09-03T05:33:53;1.67;;;1.13;;
40837;SDS011;29632;49.168;9.848;2022-09-03T05:36:22;1.50;;;0.93;;
40837;SDS011;29632;49.168;9.848;2022-09-03T05:38:50;2.47;;;1.10;;
40837;SDS011;29632;49.168;9.848;2022-09-03T05:41:20;1.77;;;1.30;;
40837;SDS011;29632;49.168;9.848;2022-09-03T05:43:47;1.03;;;0.93;;
40837;SDS011;29632;49.168;9.848;2022-09-03T05:48:43;1.80;;;0.97;;
40837;SDS011;29632;49.168;9.848;2022-09-03T05:51:09;2.00;;;1.10;;
40837;SDS011;29632;49.168;9.848;2022-09-03T05:53:40;1.40;;;1.13;;
40837;SDS011;29632;49.168;9.848;2022-09-03T05:56:09;3.50;;;1.20;;
40837;SDS011;29632;49.168;9.848;2022-09-03T05:58:44;2.10;;;1.10;;
40837;SDS011;29632;49.168;9.848;2022-09-03T06:01:13;1.17;;;1.00;;
40837;SDS011;29632;49.168;9.848;2022-09-03T06:03:42;3.10;;;1.27;;
40837;SDS011;29632;49.168;9.848;2022-09-03T06:06:10;1.93;;;1.03;;
40837;SDS011;29632;49.168;9.848;2022-09-03T06:08:37;1.63;;;1.20;;
40837;SDS011;29632;49.168;9.848;2022-09-03T06:11:04;2.10;;;1.23;;
40837;SDS011;29632;49.168;9.848;2022-09-03T06:13:30;1.20;;;1.00;;
40837;SDS011;29632;49.168;9.848;2022-09-03T06:15:57;1.43;;;1.00;;
40837;SDS011;29632;49.168;9.848;2022-09-03T06:18:28;1.57;;;1.00;;
40837;SDS011;29632;49.168;9.848;2022-09-03T06:20:55;2.33;;;0.93;;
40837;SDS011;29632;49.168;9.848;2022-09-03T06:23:25;1.57;;;1.17;;
40837;SDS011;29632;49.168;9.848;2022-09-03T06:26:02;2.10;;;1.20;;
40837;SDS011;29632;49.168;9.848;2022-09-03T06:28:38;1.33;;;1.10;;
40837;SDS011;29632;49.168;9.848;2022-09-03T06:33:36;1.63;;;0.97;;
40837;SDS011;29632;49.168;9.848;2022-09-03T06:36:04;2.47;;;1.30;;
40837;SDS011;29632;49.168;9.848;2022-09-03T06:38:32;1.27;;;0.97;;
40837;SDS011;29632;49.168;9.848;2022-09-03T06:41:00;1.30;;;1.07;;
40837;SDS011;29632;49.168;9.848;2022-09-03T06:43:33;2.03;;;1.37;;
40837;SDS011;29632;49.168;9.848;2022-09-03T06:46:02;1.70;;;1.30;;
40837;SDS011;29632;49.168;9.848;2022-09-03T06:48:30;2.83;;;1.20;;
40837;SDS011;29632;49.168;9.848;2022-09-03T06:50:59;3.53;;;1.00;;
40837;SDS011;29632;49.168;9.848;2022-09-03T06:53:28;3.13;;;1.40;;
40837;SDS011;29632;49.168;9.848;2022-09-03T06:56:01;1.57;;;1.30;;
40837;SDS011;29632;49.168;9.848;2022-09-03T06:58:30;2.27;;;1.30;;
40837;SDS011;29632;49.168;9.848;2022-09-03T07:01:01;2.03;;;1.17;;
40837;SDS011;29632;49.168;9.848;2022-09-03T07:03:32;3.53;;;1.23;;
40837;SDS011;29632;49.168;9.848;2022-09-03T07:06:00;2.30;;;1.10;;
40837;SDS011;29632;49.168;9.848;2022-09-03T07:08:27;1.67;;;1.10;;
40837;SDS011;29632;49.168;9.848;2022-09-03T07:10:54;2.13;;;1.20;;
40837;SDS011;29632;49.168;9.848;2022-09-03T07:13:20;2.10;;;1.30;;
40837;SDS011;29632;49.168;9.848;2022-09-03T07:15:45;3.30;;;1.20;;
40837;SDS011;29632;49.168;9.848;2022-09-03T07:18:11;2.87;;;1.50;;
40837;SDS011;29632;49.168;9.848;2022-09-03T07:20:37;1.70;;;1.23;;
40837;SDS011;29632;49.168;9.848;2022-09-03T07:23:02;4.67;;;1.13;;
40837;SDS011;29632;49.168;9.848;2022-09-03T07:25:28;1.40;;;1.20;;
40837;SDS011;29632;49.168;9.848;2022-09-03T07:27:55;2.00;;;1.20;;
40837;SDS011;29632;49.168;9.848;2022-09-03T07:30:22;2.17;;;1.20;;
40837;SDS011;29632;49.168;9.848;2022-09-03T07:32:49;2.37;;;1.30;;
40837;SDS011;29632;49.168;9.848;2022-09-03T07:35:16;2.90;;;1.47;;
40837;SDS011;29632;49.168;9.848;2022-09-03T07:37:43;2.10;;;1.07;;
40837;SDS011;29632;49.168;9.848;2022-09-03T07:40:09;1.87;;;1.20;;
40837;SDS011;29632;49.168;9.848;2022-09-03T07:42:35;4.43;;;1.40;;
40837;SDS011;29632;49.168;9.848;2022-09-03T07:45:05;4.15;;;1.10;;
40837;SDS011;29632;49.168;9.848;2022-09-03T07:47:35;3.45;;;1.20;;
40837;SDS011;29632;49.168;9.848;2022-09-03T07:50:01;3.40;;;1.70;;
40837;SDS011;29632;49.168;9.848;2022-09-03T07:52:29;2.27;;;1.30;;
40837;SDS011;29632;49.168;9.848;2022-09-03T07:54:55;2.73;;;1.07;;
40837;SDS011;29632;49.168;9.848;2022-09-03T07:57:20;2.80;;;1.40;;
40837;SDS011;29632;49.168;9.848;2022-09-03T07:59:46;3.63;;;1.33;;
40837;SDS011;29632;49.168;9.848;2022-09-03T08:02:12;1.43;;;1.10;;
40837;SDS011;29632;49.168;9.848;2022-09-03T08:04:37;1.63;;;1.03;;
40837;SDS011;29632;49.168;9.848;2022-09-03T08:07:04;1.60;;;1.40;;
40837;SDS011;29632;49.168;9.848;2022-09-03T08:09:30;1.30;;;1.00;;
40837;SDS011;29632;49.168;9.848;2022-09-03T08:11:57;3.47;;;1.50;;
40837;SDS011;29632;49.168;9.848;2022-09-03T08:14:23;1.70;;;1.40;;
40837;SDS011;29632;49.168;9.848;2022-09-03T08:16:48;2.50;;;1.07;;
40837;SDS011;29632;49.168;9.848;2022-09-03T08:19:14;2.90;;;1.43;;
40837;SDS011;29632;49.168;9.848;2022-09-03T08:21:42;2.00;;;1.10;;
40837;SDS011;29632;49.168;9.848;2022-09-03T08:24:09;4.97;;;1.53;;
40837;SDS011;29632;49.168;9.848;2022-09-03T08:26:37;2.83;;;1.30;;
40837;SDS011;29632;49.168;9.848;2022-09-03T08:29:06;2.65;;;1.00;;
40837;SDS011;29632;49.168;9.848;2022-09-03T08:31:32;2.23;;;1.40;;
40837;SDS011;29632;49.168;9.848;2022-09-03T08:34:00;2.80;;;1.20;;
40837;SDS011;29632;49.168;9.848;2022-09-03T08:36:31;1.97;;;1.40;;
40837;SDS011;29632;49.168;9.848;2022-09-03T08:39:00;2.67;;;1.87;;
40837;SDS011;29632;49.168;9.848;2022-09-03T08:46:48;2.23;;;1.70;;
40837;SDS011;29632;49.168;9.848;2022-09-03T08:49:50;2.67;;;1.27;;
40837;SDS011;29632;49.168;9.848;2022-09-03T08:52:32;1.20;;;1.07;;
40837;SDS011;29632;49.168;9.848;2022-09-03T09:00:54;4.17;;;1.77;;
40837;SDS011;29632;49.168;9.848;2022-09-03T09:06:33;4.13;;;1.63;;
40837;SDS011;29632;49.168;9.848;2022-09-03T09:12:28;2.87;;;1.40;;
40837;SDS011;29632;49.168;9.848;2022-09-03T09:20:51;3.07;;;1.70;;
40837;SDS011;29632;49.168;9.848;2022-09-03T09:23:47;2.47;;;1.63;;
40837;SDS011;29632;49.168;9.848;2022-09-03T09:26:19;3.47;;;1.40;;
40837;SDS011;29632;49.168;9.848;2022-09-03T09:28:47;3.10;;;1.77;;
40837;SDS011;29632;49.168;9.848;2022-09-03T09:31:34;3.03;;;1.90;;
40837;SDS011;29632;49.168;9.848;2022-09-03T09:34:03;4.03;;;1.63;;
40837;SDS011;29632;49.168;9.848;2022-09-03T09:36:47;2.50;;;1.70;;
40837;SDS011;29632;49.168;9.848;2022-09-03T09:39:17;3.20;;;1.40;;
40837;SDS011;29632;49.168;9.848;2022-09-03T09:41:55;9.45;;;2.40;;
40837;SDS011;29632;49.168;9.848;2022-09-03T09:44:29;9.48;;;2.17;;
40837;SDS011;29632;49.168;9.848;2022-09-03T09:47:02;6.30;;;2.47;;
40837;SDS011;29632;49.168;9.848;2022-09-03T09:50:20;3.35;;;1.67;;
40837;SDS011;29632;49.168;9.848;2022-09-03T09:52:28;2.70;;;1.30;;
40837;SDS011;29632;49.168;9.848;2022-09-03T09:55:09;1.77;;;1.40;;
40837;SDS011;29632;49.168;9.848;2022-09-03T09:57:43;1.55;;;1.30;;
40837;SDS011;29632;49.168;9.848;2022-09-03T10:00:11;4.30;;;1.83;;
40837;SDS011;29632;49.168;9.848;2022-09-03T10:07:55;2.33;;;1.70;;
40837;SDS011;29632;49.168;9.848;2022-09-03T10:10:23;3.00;;;1.70;;
40837;SDS011;29632;49.168;9.848;2022-09-03T10:26:48;1.95;;;1.40;;
40837;SDS011;29632;49.168;9.848;2022-09-03T10:29:18;2.00;;;1.55;;
40837;SDS011;29632;49.168;9.848;2022-09-03T10:37:34;2.85;;;1.70;;
40837;SDS011;29632;49.168;9.848;2022-09-03T10:45:37;3.10;;;1.50;;
40837;SDS011;29632;49.168;9.848;2022-09-03T10:51:35;2.95;;;1.48;;
40837;SDS011;29632;49.168;9.848;2022-09-03T10:57:43;1.97;;;1.50;;
40837;SDS011;29632;49.168;9.848;2022-09-03T11:00:28;1.63;;;1.10;;
40837;SDS011;29632;49.168;9.848;2022-09-03T11:06:01;3.10;;;1.33;;
40837;SDS011;29632;49.168;9.848;2022-09-03T11:08:36;1.77;;;1.13;;
40837;SDS011;29632;49.168;9.848;2022-09-03T11:11:46;2.35;;;1.58;;
40837;SDS011;29632;49.168;9.848;2022-09-03T11:14:29;2.20;;;1.38;;
40837;SDS011;29632;49.168;9.848;2022-09-03T11:17:23;2.25;;;1.65;;
40837;SDS011;29632;49.168;9.848;2022-09-03T11:19:55;3.58;;;1.67;;
40837;SDS011;29632;49.168;9.848;2022-09-03T11:22:45;3.83;;;1.77;;
40837;SDS011;29632;49.168;9.848;2022-09-03T11:25:16;2.00;;;1.45;;
40837;SDS011;29632;49.168;9.848;2022-09-03T11:33:59;2.08;;;1.40;;
40837;SDS011;29632;49.168;9.848;2022-09-03T11:36:37;18.87;;;1.50;;
40837;SDS011;29632;49.168;9.848;2022-09-03T11:41:57;4.07;;;1.60;;
40837;SDS011;29632;49.168;9.848;2022-09-03T11:44:43;10.95;;;2.05;;
40837;SDS011;29632;49.168;9.848;2022-09-03T11:47:14;1.73;;;1.40;;
40837;SDS011;29632;49.168;9.848;2022-09-03T11:50:03;36.05;;;5.18;;
40837;SDS011;29632;49.168;9.848;2022-09-03T11:52:40;10.07;;;2.83;;
40837;SDS011;29632;49.168;9.848;2022-09-03T11:55:06;14.85;;;2.80;;
40837;SDS011;29632;49.168;9.848;2022-09-03T11:57:32;10.20;;;2.80;;
40837;SDS011;29632;49.168;9.848;2022-09-03T12:00:08;10.32;;;2.80;;
40837;SDS011;29632;49.168;9.848;2022-09-03T12:02:43;2.85;;;1.60;;
40837;SDS011;29632;49.168;9.848;2022-09-03T12:05:17;2.72;;;1.70;;
40837;SDS011;29632;49.168;9.848;2022-09-03T12:11:21;5.40;;;2.00;;
40837;SDS011;29632;49.168;9.848;2022-09-03T12:14:05;5.25;;;1.73;;
40837;SDS011;29632;49.168;9.848;2022-09-03T12:16:59;7.68;;;2.40;;
40837;SDS011;29632;49.168;9.848;2022-09-03T12:19:44;9.95;;;2.25;;
40837;SDS011;29632;49.168;9.848;2022-09-03T12:22:23;2.88;;;1.70;;
40837;SDS011;29632;49.168;9.848;2022-09-03T12:24:53;3.05;;;1.63;;
40837;SDS011;29632;49.168;9.848;2022-09-03T12:27:21;2.00;;;1.50;;
40837;SDS011;29632;49.168;9.848;2022-09-03T12:32:29;14.45;;;2.33;;
40837;SDS011;29632;49.168;9.848;2022-09-03T12:35:10;2.40;;;1.58;;
40837;SDS011;29632;49.168;9.848;2022-09-03T12:37:38;2.60;;;1.67;;
40837;SDS011;29632;49.168;9.848;2022-09-03T12:40:14;7.23;;;1.73;;
40837;SDS011;29632;49.168;9.848;2022-09-03T12:42:54;3.95;;;1.50;;
40837;SDS011;29632;49.168;9.848;2022-09-03T12:45:40;2.20;;;1.63;;
40837;SDS011;29632;49.168;9.848;2022-09-03T12:50:42;1.77;;;1.20;;
40837;SDS011;29632;49.168;9.848;2022-09-03T12:53:11;2.22;;;1.60;;
40837;SDS011;29632;49.168;9.848;2022-09-03T12:55:46;8.00;;;2.30;;
40837;SDS011;29632;49.168;9.848;2022-09-03T12:58:19;1.90;;;1.60;;
40837;SDS011;29632;49.168;9.848;2022-09-03T13:00:55;3.45;;;1.85;;
40837;SDS011;29632;49.168;9.848;2022-09-03T13:03:29;2.63;;;1.60;;
40837;SDS011;29632;49.168;9.848;2022-09-03T13:06:20;4.50;;;1.50;;
40837;SDS011;29632;49.168;9.848;2022-09-03T13:08:58;3.50;;;1.80;;
40837;SDS011;29632;49.168;9.848;2022-09-03T13:11:27;2.17;;;1.50;;
40837;SDS011;29632;49.168;9.848;2022-09-03T13:14:05;4.10;;;2.20;;
40837;SDS011;29632;49.168;9.848;2022-09-03T13:19:07;2.42;;;1.42;;
40837;SDS011;29632;49.168;9.848;2022-09-03T13:25:19;3.00;;;1.50;;
40837;SDS011;29632;49.168;9.848;2022-09-03T13:31:17;2.90;;;1.60;;
40837;SDS011;29632;49.168;9.848;2022-09-03T13:34:04;1.83;;;1.30;;
40837;SDS011;29632;49.168;9.848;2022-09-03T13:37:16;2.55;;;1.52;;
40837;SDS011;29632;49.168;9.848;2022-09-03T13:40:02;2.17;;;1.70;;
40837;SDS011;29632;49.168;9.848;2022-09-03T13:43:03;1.75;;;1.30;;
40837;SDS011;29632;49.168;9.848;2022-09-03T13:45:43;1.30;;;1.17;;
40837;SDS011;29632;49.168;9.848;2022-09-03T13:48:35;2.55;;;1.38;;
40837;SDS011;29632;49.168;9.848;2022-09-03T13:54:13;1.52;;;1.35;;
40837;SDS011;29632;49.168;9.848;2022-09-03T13:56:54;1.83;;;1.30;;
40837;SDS011;29632;49.168;9.848;2022-09-03T14:08:27;2.60;;;1.63;;
40837;SDS011;29632;49.168;9.848;2022-09-03T14:20:22;4.38;;;1.55;;
40837;SDS011;29632;49.168;9.848;2022-09-03T14:25:56;2.03;;;1.77;;
40837;SDS011;29632;49.168;9.848;2022-09-03T14:28:33;2.78;;;1.20;;
40837;SDS011;29632;49.168;9.848;2022-09-03T14:34:08;1.83;;;1.40;;
40837;SDS011;29632;49.168;9.848;2022-09-03T14:40:17;3.63;;;1.58;;
40837;SDS011;29632;49.168;9.848;2022-09-03T15:03:22;2.95;;;2.13;;
40837;SDS011;29632;49.168;9.848;2022-09-03T15:12:02;2.10;;;1.15;;
40837;SDS011;29632;49.168;9.848;2022-09-03T15:14:54;2.00;;;1.45;;
40837;SDS011;29632;49.168;9.848;2022-09-03T15:17:30;1.98;;;1.40;;
40837;SDS011;29632;49.168;9.848;2022-09-03T15:20:44;2.72;;;1.25;;
40837;SDS011;29632;49.168;9.848;2022-09-03T15:30:13;3.70;;;1.40;;
40837;SDS011;29632;49.168;9.848;2022-09-03T15:38:27;1.13;;;0.88;;
40837;SDS011;29632;49.168;9.848;2022-09-03T15:41:34;0.68;;;0.60;;
40837;SDS011;29632;49.168;9.848;2022-09-03T15:44:23;1.02;;;0.50;;
40837;SDS011;29632;49.168;9.848;2022-09-03T15:49:46;1.30;;;0.70;;
40837;SDS011;29632;49.168;9.848;2022-09-03T15:57:54;1.73;;;0.63;;
40837;SDS011;29632;49.168;9.848;2022-09-03T16:03:18;0.73;;;0.55;;
40837;SDS011;29632;49.168;9.848;2022-09-03T16:06:17;0.77;;;0.65;;
40837;SDS011;29632;49.168;9.848;2022-09-03T16:08:54;1.48;;;0.70;;
40837;SDS011;29632;49.168;9.848;2022-09-03T16:19:17;1.35;;;0.70;;
40837;SDS011;29632;49.168;9.848;2022-09-03T16:22:13;0.98;;;0.60;;
40837;SDS011;29632;49.168;9.848;2022-09-03T16:25:10;0.80;;;0.68;;
40837;SDS011;29632;49.168;9.848;2022-09-03T16:35:44;1.08;;;0.90;;
40837;SDS011;29632;49.168;9.848;2022-09-03T16:41:07;1.05;;;0.85;;
40837;SDS011;29632;49.168;9.848;2022-09-03T16:52:28;1.27;;;0.90;;
40837;SDS011;29632;49.168;9.848;2022-09-03T16:55:28;1.98;;;1.00;;
40837;SDS011;29632;49.168;9.848;2022-09-03T17:07:04;5.15;;;0.90;;
40837;SDS011;29632;49.168;9.848;2022-09-03T17:10:18;1.13;;;0.85;;
40837;SDS011;29632;49.168;9.848;2022-09-03T17:13:18;2.92;;;0.98;;
40837;SDS011;29632;49.168;9.848;2022-09-03T17:25:18;1.30;;;1.00;;
40837;SDS011;29632;49.168;9.848;2022-09-03T17:36:53;1.30;;;0.77;;
40837;SDS011;29632;49.168;9.848;2022-09-03T17:39:47;1.33;;;0.90;;
40837;SDS011;29632;49.168;9.848;2022-09-03T17:42:59;1.63;;;1.10;;
40837;SDS011;29632;49.168;9.848;2022-09-03T17:48:58;1.52;;;1.20;;
40837;SDS011;29632;49.168;9.848;2022-09-03T17:54:55;1.42;;;0.93;;
40837;SDS011;29632;49.168;9.848;2022-09-03T18:00:06;1.50;;;1.25;;
40837;SDS011;29632;49.168;9.848;2022-09-03T18:05:32;1.00;;;0.90;;
40837;SDS011;29632;49.168;9.848;2022-09-03T18:08:14;3.30;;;1.05;;
40837;SDS011;29632;49.168;9.848;2022-09-03T18:17:02;1.75;;;1.20;;
40837;SDS011;29632;49.168;9.848;2022-09-03T18:20:25;1.70;;;1.10;;
40837;SDS011;29632;49.168;9.848;2022-09-03T18:23:17;1.30;;;0.90;;
40837;SDS011;29632;49.168;9.848;2022-09-03T18:26:10;1.27;;;1.17;;
40837;SDS011;29632;49.168;9.848;2022-09-03T18:29:06;1.93;;;1.30;;
40837;SDS011;29632;49.168;9.848;2022-09-03T18:31:58;1.77;;;1.30;;
40837;SDS011;29632;49.168;9.848;2022-09-03T18:34:43;2.60;;;1.30;;
40837;SDS011;29632;49.168;9.848;2022-09-03T18:37:30;1.20;;;0.90;;
40837;SDS011;29632;49.168;9.848;2022-09-03T18:40:16;2.33;;;1.00;;
40837;SDS011;29632;49.168;9.848;2022-09-03T18:43:13;1.40;;;1.10;;
40837;SDS011;29632;49.168;9.848;2022-09-03T18:46:20;1.77;;;1.50;;
40837;SDS011;29632;49.168;9.848;2022-09-03T18:49:30;1.40;;;1.13;;
40837;SDS011;29632;49.168;9.848;2022-09-03T18:52:37;1.83;;;1.00;;
40837;SDS011;29632;49.168;9.848;2022-09-03T18:55:44;2.17;;;1.23;;
40837;SDS011;29632;49.168;9.848;2022-09-03T19:02:02;1.50;;;1.10;;
40837;SDS011;29632;49.168;9.848;2022-09-03T19:05:22;1.53;;;1.20;;
40837;SDS011;29632;49.168;9.848;2022-09-03T19:11:55;1.80;;;1.27;;
40837;SDS011;29632;49.168;9.848;2022-09-03T19:15:00;1.90;;;1.30;;
40837;SDS011;29632;49.168;9.848;2022-09-03T19:18:11;2.10;;;1.20;;
40837;SDS011;29632;49.168;9.848;2022-09-03T19:21:15;2.60;;;1.10;;
40837;SDS011;29632;49.168;9.848;2022-09-03T19:24:16;3.57;;;1.30;;
40837;SDS011;29632;49.168;9.848;2022-09-03T19:27:10;2.30;;;0.97;;
40837;SDS011;29632;49.168;9.848;2022-09-03T19:30:04;1.57;;;1.03;;
40837;SDS011;29632;49.168;9.848;2022-09-03T19:39:31;3.57;;;1.47;;
40837;SDS011;29632;49.168;9.848;2022-09-03T19:45:29;1.80;;;1.30;;
40837;SDS011;29632;49.168;9.848;2022-09-03T19:48:35;1.97;;;1.07;;
40837;SDS011;29632;49.168;9.848;2022-09-03T19:54:52;4.07;;;1.57;;
40837;SDS011;29632;49.168;9.848;2022-09-03T19:57:40;1.65;;;1.30;;
40837;SDS011;29632;49.168;9.848;2022-09-03T20:00:28;1.80;;;1.27;;
40837;SDS011;29632;49.168;9.848;2022-09-03T20:03:15;2.47;;;1.40;;
40837;SDS011;29632;49.168;9.848;2022-09-03T20:06:00;2.60;;;1.40;;
40837;SDS011;29632;49.168;9.848;2022-09-03T20:08:48;1.67;;;1.40;;
40837;SDS011;29632;49.168;9.848;2022-09-03T20:11:34;1.53;;;1.20;;
40837;SDS011;29632;49.168;9.848;2022-09-03T20:14:03;2.73;;;1.63;;
40837;SDS011;29632;49.168;9.848;2022-09-03T20:19:38;4.60;;;2.40;;
40837;SDS011;29632;49.168;9.848;2022-09-03T20:22:32;3.93;;;2.53;;
40837;SDS011;29632;49.168;9.848;2022-09-03T20:43:17;4.03;;;1.80;;
40837;SDS011;29632;49.168;9.848;2022-09-03T20:48:55;5.87;;;3.07;;
40837;SDS011;29632;49.168;9.848;2022-09-03T20:51:54;4.10;;;2.77;;
40837;SDS011;29632;49.168;9.848;2022-09-03T20:57:55;2.93;;;1.73;;
40837;SDS011;29632;49.168;9.848;2022-09-03T21:00:44;3.50;;;2.43;;
40837;SDS011;29632;49.168;9.848;2022-09-03T21:03:21;5.37;;;2.77;;
40837;SDS011;29632;49.168;9.848;2022-09-03T21:09:49;3.07;;;1.83;;
40837;SDS011;29632;49.168;9.848;2022-09-03T21:12:35;3.17;;;2.10;;
40837;SDS011;29632;49.168;9.848;2022-09-03T21:15:12;4.37;;;2.03;;
40837;SDS011;29632;49.168;9.848;2022-09-03T21:18:05;2.00;;;1.65;;
40837;SDS011;29632;49.168;9.848;2022-09-03T21:23:46;1.50;;;1.30;;
40837;SDS011;29632;49.168;9.848;2022-09-03T21:26:35;3.27;;;1.50;;
40837;SDS011;29632;49.168;9.848;2022-09-03T21:29:20;3.50;;;1.77;;
40837;SDS011;29632;49.168;9.848;2022-09-03T21:32:01;3.00;;;1.67;;
40837;SDS011;29632;49.168;9.848;2022-09-03T21:34:54;2.80;;;1.57;;
40837;SDS011;29632;49.168;9.848;2022-09-03T21:38:03;3.67;;;1.70;;
40837;SDS011;29632;49.168;9.848;2022-09-03T21:40:33;2.20;;;1.43;;
40837;SDS011;29632;49.168;9.848;2022-09-03T21:43:10;2.60;;;1.50;;